createdAt,value
2018-03-27T00:02:22.289Z,82.70
2018-03-27T00:04:50.601Z,82.90
2018-03-27T00:07:18.903Z,83.30
2018-03-27T00:09:47.220Z,83.30
2018-03-27T00:12:15.516Z,83.20
2018-03-27T00:14:43.832Z,83.20
2018-03-27T00:17:12.137Z,83.10
2018-03-27T00:19:40.453Z,83.00
2018-03-27T00:22:08.748Z,83.10
2018-03-27T00:24:41.957Z,83.10
2018-03-27T00:27:09.755Z,83.20
2018-03-27T00:29:49.896Z,83.30
2018-03-27T00:32:29.962Z,83.30
2018-03-27T00:35:10.222Z,83.50
2018-03-27T00:37:50.340Z,83.70
2018-03-27T00:40:30.663Z,83.90
2018-03-27T00:43:03.391Z,83.90
2018-03-27T00:45:31.708Z,83.80
2018-03-27T00:48:00.002Z,83.60
2018-03-27T00:50:28.321Z,83.50
2018-03-27T00:52:56.617Z,83.60
2018-03-27T00:55:24.936Z,83.80
2018-03-27T00:57:53.228Z,83.80
2018-03-27T01:00:21.541Z,83.70
2018-03-27T01:02:49.829Z,83.60
2018-03-27T01:05:18.144Z,83.60
2018-03-27T01:07:46.440Z,83.50
2018-03-27T01:10:14.775Z,83.80
2018-03-27T01:12:43.064Z,83.80
2018-03-27T01:15:11.392Z,83.90
2018-03-27T01:17:39.707Z,84.00
2018-03-27T01:20:08.005Z,83.90
2018-03-27T01:22:36.315Z,84.00
2018-03-27T01:25:04.601Z,84.00
2018-03-27T01:27:32.920Z,84.00
2018-03-27T01:30:01.212Z,83.90
2018-03-27T01:32:29.530Z,84.20
2018-03-27T01:34:57.829Z,84.40
2018-03-27T01:37:26.140Z,84.40
2018-03-27T01:39:54.432Z,84.70
2018-03-27T01:42:22.744Z,84.80
2018-03-27T01:44:51.041Z,85.40
2018-03-27T01:47:19.352Z,84.40
2018-03-27T01:49:47.640Z,84.50
2018-03-27T01:52:15.950Z,84.50
2018-03-27T01:54:44.245Z,85.10
2018-03-27T01:57:12.569Z,84.50
2018-03-27T01:59:40.860Z,84.80
2018-03-27T02:02:09.180Z,84.90
2018-03-27T02:04:37.477Z,84.90
2018-03-27T02:07:05.803Z,84.90
2018-03-27T02:09:34.092Z,84.80
2018-03-27T02:12:08.008Z,84.80
2018-03-27T02:14:41.944Z,84.80
2018-03-27T02:17:16.028Z,84.80
2018-03-27T02:19:49.911Z,84.90
2018-03-27T02:22:18.228Z,84.80
2018-03-27T02:24:46.526Z,84.90
2018-03-27T02:27:14.838Z,84.80
2018-03-27T02:29:43.129Z,84.80
2018-03-27T02:32:11.453Z,84.90
2018-03-27T02:34:39.744Z,84.80
2018-03-27T02:37:08.053Z,85.00
2018-03-27T02:39:36.345Z,85.20
2018-03-27T02:42:04.665Z,85.20
2018-03-27T02:44:32.988Z,85.20
2018-03-27T02:47:01.310Z,85.50
2018-03-27T02:49:29.610Z,85.80
2018-03-27T02:51:57.925Z,86.10
2018-03-27T02:54:26.216Z,86.10
2018-03-27T02:56:54.536Z,86.10
2018-03-27T02:59:22.832Z,86.00
2018-03-27T03:01:51.156Z,85.90
2018-03-27T03:04:19.448Z,85.70
2018-03-27T03:06:47.736Z,85.80
2018-03-27T03:09:16.047Z,85.80
2018-03-27T03:11:44.342Z,85.70
2018-03-27T03:14:11.910Z,85.70
2018-03-27T03:16:40.199Z,85.50
2018-03-27T03:19:08.575Z,85.50
2018-03-27T03:21:36.820Z,85.50
2018-03-27T03:24:05.137Z,85.40
2018-03-27T03:26:33.448Z,85.60
2018-03-27T03:29:01.777Z,85.80
2018-03-27T03:31:30.078Z,85.60
2018-03-27T03:33:58.392Z,85.70
2018-03-27T03:36:26.688Z,85.50
2018-03-27T03:38:55.007Z,85.40
2018-03-27T03:41:23.307Z,85.40
2018-03-27T03:43:51.633Z,85.40
2018-03-27T03:46:19.924Z,85.50
2018-03-27T03:48:48.244Z,85.50
2018-03-27T03:51:16.539Z,85.30
2018-03-27T03:53:44.860Z,85.40
2018-03-27T03:56:13.154Z,85.50
2018-03-27T03:58:41.465Z,85.60
2018-03-27T04:01:09.777Z,85.50
2018-03-27T04:03:38.092Z,85.50
2018-03-27T04:06:06.389Z,85.30
2018-03-27T04:08:34.708Z,85.50
2018-03-27T04:11:03.027Z,85.60
2018-03-27T04:13:31.344Z,85.60
2018-03-27T04:15:59.641Z,85.60
2018-03-27T04:18:27.953Z,85.70
2018-03-27T04:20:56.248Z,85.60
2018-03-27T04:23:24.577Z,85.60
2018-03-27T04:25:52.881Z,85.40
2018-03-27T04:28:21.200Z,85.30
2018-03-27T04:30:49.497Z,85.10
2018-03-27T04:33:17.813Z,85.00
2018-03-27T04:35:46.096Z,85.00
2018-03-27T04:38:14.405Z,85.00
2018-03-27T04:40:42.700Z,84.80
2018-03-27T04:43:11.045Z,84.70
2018-03-27T04:45:39.340Z,84.70
2018-03-27T04:48:07.636Z,84.70
2018-03-27T04:50:35.947Z,84.60
2018-03-27T04:53:04.240Z,84.60
2018-03-27T04:55:32.549Z,84.70
2018-03-27T04:58:00.840Z,85.00
2018-03-27T05:00:29.152Z,85.00
2018-03-27T05:02:57.439Z,85.00
2018-03-27T05:05:25.757Z,85.00
2018-03-27T05:07:54.047Z,85.00
2018-03-27T05:10:22.358Z,84.80
2018-03-27T05:12:50.649Z,84.80
2018-03-27T05:15:18.960Z,84.70
2018-03-27T05:17:47.248Z,85.50
2018-03-27T05:20:15.565Z,84.60
2018-03-27T05:22:43.865Z,84.50
2018-03-27T05:25:12.180Z,85.40
2018-03-27T05:27:40.468Z,84.40
2018-03-27T05:30:08.781Z,84.20
2018-03-27T05:32:37.083Z,84.10
2018-03-27T05:35:05.392Z,83.80
2018-03-27T05:37:33.680Z,83.90
2018-03-27T05:40:01.997Z,83.60
2018-03-27T05:42:30.296Z,83.30
2018-03-27T05:44:58.608Z,83.30
2018-03-27T05:47:26.896Z,83.20
2018-03-27T05:49:55.212Z,83.10
2018-03-27T05:52:23.509Z,82.80
2018-03-27T05:54:51.834Z,82.60
2018-03-27T05:57:20.123Z,82.30
2018-03-27T05:59:48.435Z,82.20
2018-03-27T06:02:16.725Z,82.10
2018-03-27T06:04:45.044Z,81.90
2018-03-27T06:07:13.336Z,81.70
2018-03-27T06:09:41.690Z,81.50
2018-03-27T06:12:09.980Z,81.40
2018-03-27T06:14:38.284Z,81.20
2018-03-27T06:17:06.579Z,81.10
2018-03-27T06:19:34.891Z,81.50
2018-03-27T06:22:03.189Z,80.80
2018-03-27T06:24:31.500Z,81.40
2018-03-27T06:26:59.788Z,80.40
2018-03-27T06:29:28.077Z,80.70
2018-03-27T06:31:56.396Z,80.10
2018-03-27T06:34:24.680Z,79.80
2018-03-27T06:36:52.998Z,80.40
2018-03-27T06:39:21.298Z,79.30
2018-03-27T06:41:49.604Z,78.80
2018-03-27T06:44:17.908Z,78.60
2018-03-27T06:46:46.216Z,78.30
2018-03-27T06:49:14.505Z,78.00
2018-03-27T06:51:42.811Z,77.70
2018-03-27T06:54:11.100Z,77.50
2018-03-27T06:56:39.420Z,77.20
2018-03-27T06:59:07.750Z,77.10
2018-03-27T07:01:36.087Z,77.00
2018-03-27T07:04:04.384Z,76.90
2018-03-27T07:06:32.696Z,76.70
2018-03-27T07:09:00.838Z,76.80
2018-03-27T07:11:29.183Z,76.20
2018-03-27T07:13:57.483Z,75.90
2018-03-27T07:16:25.819Z,75.40
2018-03-27T07:18:54.112Z,74.80
2018-03-27T07:21:22.425Z,74.30
2018-03-27T07:23:50.722Z,73.60
2018-03-27T07:26:19.041Z,73.40
2018-03-27T07:28:47.324Z,73.20
2018-03-27T07:31:15.636Z,72.60
2018-03-27T07:33:43.928Z,72.70
2018-03-27T07:36:12.249Z,71.10
2018-03-27T07:38:40.548Z,70.70
2018-03-27T07:41:08.868Z,70.40
2018-03-27T07:43:37.175Z,71.10
2018-03-27T07:46:05.496Z,70.10
2018-03-27T07:48:33.783Z,69.90
2018-03-27T07:51:02.100Z,69.70
2018-03-27T07:53:30.410Z,69.50
2018-03-27T07:55:58.745Z,69.40
2018-03-27T07:58:27.031Z,69.20
2018-03-27T08:00:55.344Z,69.60
2018-03-27T08:03:23.641Z,67.80
2018-03-27T08:05:51.956Z,66.70
2018-03-27T08:08:20.256Z,66.10
2018-03-27T08:10:48.572Z,65.60
2018-03-27T08:13:16.887Z,65.40
2018-03-27T08:15:45.189Z,65.00
2018-03-27T08:18:13.505Z,64.30
2018-03-27T08:20:41.816Z,63.00
2018-03-27T08:23:10.137Z,61.20
2018-03-27T08:25:38.436Z,59.90
2018-03-27T08:28:06.763Z,59.60
2018-03-27T08:30:35.067Z,59.10
2018-03-27T08:33:03.384Z,58.70
2018-03-27T08:35:31.688Z,58.60
2018-03-27T08:38:00.004Z,58.60
2018-03-27T08:40:28.313Z,58.40
2018-03-27T08:42:56.637Z,58.10
2018-03-27T08:45:24.946Z,57.90
2018-03-27T08:47:53.268Z,57.00
2018-03-27T08:50:21.564Z,57.00
2018-03-27T08:52:49.884Z,56.20
2018-03-27T08:55:18.193Z,56.00
2018-03-27T08:57:46.513Z,56.40
2018-03-27T09:00:14.805Z,56.20
2018-03-27T09:02:43.127Z,55.60
2018-03-27T09:05:11.464Z,55.00
2018-03-27T09:07:39.787Z,54.10
2018-03-27T09:10:08.086Z,52.10
2018-03-27T09:12:35.642Z,52.10
2018-03-27T09:15:03.946Z,51.90
2018-03-27T09:17:32.260Z,51.70
2018-03-27T09:20:00.555Z,51.60
2018-03-27T09:22:28.888Z,51.60
2018-03-27T09:25:02.804Z,51.40
2018-03-27T09:27:31.124Z,50.50
2018-03-27T09:29:59.420Z,50.50
2018-03-27T09:32:27.737Z,50.20
2018-03-27T09:34:56.041Z,50.10
2018-03-27T09:37:23.600Z,50.10
2018-03-27T09:39:51.899Z,50.10
2018-03-27T09:42:20.220Z,50.30
2018-03-27T09:44:48.520Z,50.00
2018-03-27T09:47:16.839Z,49.20
2018-03-27T09:49:45.140Z,48.60
2018-03-27T09:52:13.498Z,48.30
2018-03-27T09:54:41.941Z,48.00
2018-03-27T09:57:10.309Z,47.40
2018-03-27T09:59:38.623Z,47.10
2018-03-27T10:02:06.920Z,46.10
2018-03-27T10:04:35.240Z,45.30
2018-03-27T10:07:03.545Z,45.20
2018-03-27T10:09:31.864Z,45.10
2018-03-27T10:12:00.165Z,44.80
2018-03-27T10:14:28.501Z,43.60
2018-03-27T10:16:56.796Z,43.30
2018-03-27T10:19:25.115Z,43.60
2018-03-27T10:21:53.438Z,43.60
2018-03-27T10:24:21.759Z,43.70
2018-03-27T10:26:50.064Z,43.70
2018-03-27T10:29:18.380Z,44.10
2018-03-27T10:31:46.684Z,44.70
2018-03-27T10:34:15.065Z,44.60
2018-03-27T10:36:43.324Z,44.90
2018-03-27T10:39:11.653Z,44.30
2018-03-27T10:41:39.947Z,43.70
2018-03-27T10:44:08.276Z,43.70
2018-03-27T10:46:36.575Z,43.10
2018-03-27T10:49:04.896Z,43.60
2018-03-27T10:51:33.200Z,44.20
2018-03-27T10:54:01.521Z,44.30
2018-03-27T10:56:29.821Z,44.50
2018-03-27T10:58:58.141Z,45.20
2018-03-27T11:01:26.437Z,45.30
2018-03-27T11:03:54.796Z,45.60
2018-03-27T11:06:23.072Z,45.00
2018-03-27T11:08:51.397Z,45.00
2018-03-27T11:11:19.708Z,45.30
2018-03-27T11:13:48.030Z,44.30
2018-03-27T11:16:16.320Z,44.40
2018-03-27T11:18:44.644Z,44.50
2018-03-27T11:21:12.952Z,44.20
2018-03-27T11:23:41.277Z,44.50
2018-03-27T11:26:09.588Z,45.00
2018-03-27T11:28:37.908Z,45.20
2018-03-27T11:31:06.212Z,45.00
2018-03-27T11:33:34.528Z,44.80
2018-03-27T11:36:02.853Z,45.20
2018-03-27T11:38:31.148Z,45.60
2018-03-27T11:40:59.474Z,44.80
2018-03-27T11:43:27.770Z,45.00
2018-03-27T11:45:56.124Z,45.30
2018-03-27T11:48:24.427Z,45.80
2018-03-27T11:50:52.785Z,46.50
2018-03-27T11:53:21.091Z,47.30
2018-03-27T11:55:49.404Z,47.90
2018-03-27T11:58:17.701Z,48.00
2018-03-27T12:00:46.024Z,48.10
2018-03-27T12:03:14.326Z,48.90
2018-03-27T12:05:42.640Z,49.50
2018-03-27T12:08:10.942Z,50.00
2018-03-27T12:10:39.292Z,50.60
2018-03-27T12:13:07.596Z,51.30
2018-03-27T12:15:35.917Z,51.60
2018-03-27T12:18:04.220Z,51.50
2018-03-27T12:20:32.550Z,52.30
2018-03-27T12:23:00.856Z,51.80
2018-03-27T12:25:29.181Z,52.10
2018-03-27T12:27:57.478Z,52.90
2018-03-27T12:30:25.800Z,53.80
2018-03-27T12:32:54.096Z,54.20
2018-03-27T12:35:22.420Z,55.10
2018-03-27T12:37:50.713Z,56.90
2018-03-27T12:40:19.031Z,58.60
2018-03-27T12:42:47.324Z,59.50
2018-03-27T12:45:15.705Z,60.40
2018-03-27T12:47:44.001Z,60.80
2018-03-27T12:50:12.328Z,61.10
2018-03-27T12:52:40.629Z,61.70
2018-03-27T12:55:08.947Z,60.00
2018-03-27T12:57:37.240Z,59.80
2018-03-27T13:00:05.569Z,59.80
2018-03-27T13:02:33.877Z,60.00
2018-03-27T13:05:02.197Z,60.30
2018-03-27T13:07:30.492Z,62.40
2018-03-27T13:09:58.805Z,63.60
2018-03-27T13:12:27.100Z,62.90
2018-03-27T13:14:55.428Z,62.40
2018-03-27T13:17:23.736Z,62.20
2018-03-27T13:19:52.908Z,62.40
2018-03-27T13:22:21.208Z,63.50
2018-03-27T13:24:49.508Z,62.50
2018-03-27T13:27:17.837Z,63.00
2018-03-27T13:29:46.133Z,63.50
2018-03-27T13:32:14.529Z,65.00
2018-03-27T13:34:42.772Z,66.50
2018-03-27T13:37:11.106Z,67.10
2018-03-27T13:39:39.405Z,67.70
2018-03-27T13:42:07.724Z,67.50
2018-03-27T13:44:36.016Z,67.70
2018-03-27T13:47:04.336Z,68.10
2018-03-27T13:49:32.635Z,69.20
2018-03-27T13:52:00.956Z,68.20
2018-03-27T13:54:29.260Z,69.80
2018-03-27T13:56:56.814Z,68.80
2018-03-27T13:59:25.116Z,68.80
2018-03-27T14:01:53.436Z,69.40
2018-03-27T14:04:21.742Z,69.10
2018-03-27T14:06:50.063Z,68.90
2018-03-27T14:09:18.389Z,68.20
2018-03-27T14:11:46.692Z,68.60
2018-03-27T14:14:14.984Z,69.50
2018-03-27T14:16:43.308Z,69.70
2018-03-27T14:19:11.608Z,69.90
2018-03-27T14:21:39.940Z,69.70
2018-03-27T14:24:08.242Z,70.10
2018-03-27T14:26:36.552Z,70.70
2018-03-27T14:29:04.845Z,70.30
2018-03-27T14:31:33.159Z,70.70
2018-03-27T14:34:01.452Z,71.20
2018-03-27T14:36:29.765Z,72.40
2018-03-27T14:38:58.052Z,73.50
2018-03-27T14:41:26.363Z,73.60
2018-03-27T14:43:54.676Z,73.50
2018-03-27T14:46:22.995Z,74.50
2018-03-27T14:48:51.288Z,75.00
2018-03-27T14:51:19.611Z,75.40
2018-03-27T14:53:47.897Z,75.70
2018-03-27T14:56:16.217Z,76.30
2018-03-27T14:58:44.504Z,76.50
2018-03-27T15:01:12.837Z,77.10
2018-03-27T15:03:41.131Z,77.40
2018-03-27T15:06:09.451Z,77.70
2018-03-27T15:08:37.768Z,78.40
2018-03-27T15:11:06.068Z,78.20
2018-03-27T15:13:34.403Z,78.60
2018-03-27T15:16:02.717Z,78.40
2018-03-27T15:18:31.052Z,78.40
2018-03-27T15:20:59.365Z,78.50
2018-03-27T15:23:26.925Z,78.50
2018-03-27T15:25:55.225Z,78.10
2018-03-27T15:28:23.550Z,78.00
2018-03-27T15:30:51.854Z,77.70
2018-03-27T15:33:20.173Z,77.40
2018-03-27T15:35:48.477Z,77.60
2018-03-27T15:38:16.791Z,78.20
2018-03-27T15:40:45.088Z,78.20
2018-03-27T15:43:13.401Z,78.50
2018-03-27T15:45:41.690Z,78.60
2018-03-27T15:48:10.008Z,78.60
2018-03-27T15:50:38.305Z,78.60
2018-03-27T15:53:06.616Z,79.10
2018-03-27T15:55:34.924Z,79.20
2018-03-27T15:58:03.237Z,79.30
2018-03-27T16:00:31.528Z,78.10
2018-03-27T16:02:59.861Z,78.20
2018-03-27T16:05:28.168Z,78.50
2018-03-27T16:07:56.492Z,78.90
2018-03-27T16:10:24.791Z,79.00
2018-03-27T16:12:53.109Z,79.60
2018-03-27T16:15:21.405Z,79.20
2018-03-27T16:17:49.729Z,79.20
2018-03-27T16:20:18.020Z,79.60
2018-03-27T16:22:46.331Z,79.00
2018-03-27T16:25:14.625Z,79.60
2018-03-27T16:27:42.948Z,80.50
2018-03-27T16:30:11.236Z,80.80
2018-03-27T16:32:39.557Z,81.10
2018-03-27T16:35:07.848Z,81.70
2018-03-27T16:37:36.164Z,81.90
2018-03-27T16:40:04.466Z,82.70
2018-03-27T16:42:32.793Z,82.90
2018-03-27T16:45:01.102Z,84.10
2018-03-27T16:47:29.448Z,84.00
2018-03-27T16:49:57.751Z,84.40
2018-03-27T16:52:26.044Z,84.00
2018-03-27T16:54:54.364Z,84.90
2018-03-27T16:57:22.656Z,84.80
2018-03-27T16:59:50.963Z,84.70
2018-03-27T17:02:20.008Z,85.30
2018-03-27T17:04:48.328Z,85.30
2018-03-27T17:07:16.625Z,84.40
2018-03-27T17:09:56.843Z,85.80
2018-03-27T17:12:25.128Z,84.20
2018-03-27T17:15:06.184Z,84.10
2018-03-27T17:17:34.476Z,84.30
2018-03-27T17:20:02.793Z,84.00
2018-03-27T17:22:31.080Z,84.00
2018-03-27T17:24:59.396Z,83.80
2018-03-27T17:27:27.703Z,84.20
2018-03-27T17:29:56.029Z,84.20
2018-03-27T17:32:24.328Z,84.70
2018-03-27T17:34:52.640Z,85.20
2018-03-27T17:37:20.945Z,85.50
2018-03-27T17:39:49.248Z,85.70
2018-03-27T17:42:17.545Z,86.10
2018-03-27T17:44:45.862Z,86.60
2018-03-27T17:47:13.390Z,86.60
2018-03-27T17:49:41.704Z,87.10
2018-03-27T17:52:10.004Z,87.50
2018-03-27T17:54:38.320Z,87.80
2018-03-27T17:57:06.618Z,88.10
2018-03-27T17:59:34.936Z,88.60
2018-03-27T18:02:03.234Z,89.00
2018-03-27T18:04:31.552Z,89.50
2018-03-27T18:06:59.848Z,89.60
2018-03-27T18:09:28.168Z,89.50
2018-03-27T18:11:56.463Z,89.80
2018-03-27T18:14:24.778Z,90.30
2018-03-27T18:16:53.087Z,90.30
2018-03-27T18:19:21.404Z,90.10
2018-03-27T18:21:49.703Z,90.00
2018-03-27T18:24:18.024Z,90.00
2018-03-27T18:26:46.316Z,90.00
2018-03-27T18:29:14.631Z,90.10
2018-03-27T18:31:42.932Z,90.20
2018-03-27T18:34:11.255Z,90.30
2018-03-27T18:36:39.557Z,90.40
2018-03-27T18:39:07.876Z,90.40
2018-03-27T18:41:36.172Z,90.50
2018-03-27T18:44:04.483Z,90.60
2018-03-27T18:46:32.778Z,90.60
2018-03-27T18:49:01.106Z,90.60
2018-03-27T18:51:29.411Z,90.70
2018-03-27T18:53:57.708Z,90.70
2018-03-27T18:56:26.024Z,90.70
2018-03-27T18:58:54.344Z,90.70
2018-03-27T19:01:22.665Z,90.80
2018-03-27T19:03:50.969Z,90.80
2018-03-27T19:06:19.280Z,91.00
2018-03-27T19:08:47.578Z,91.00
2018-03-27T19:11:15.903Z,91.00
2018-03-27T19:13:43.431Z,90.90
2018-03-27T19:16:11.742Z,91.00
2018-03-27T19:18:40.032Z,91.00
2018-03-27T19:21:08.345Z,91.00
2018-03-27T19:23:36.639Z,90.90
2018-03-27T19:26:04.961Z,90.80
2018-03-27T19:28:33.256Z,90.80
2018-03-27T19:31:01.570Z,90.90
2018-03-27T19:33:29.881Z,91.00
2018-03-27T19:35:58.192Z,90.90
2018-03-27T19:38:26.492Z,91.00
2018-03-27T19:40:54.828Z,91.10
2018-03-27T19:43:23.124Z,91.10
2018-03-27T19:45:51.435Z,91.20
2018-03-27T19:48:19.730Z,91.20
2018-03-27T19:50:48.056Z,91.20
2018-03-27T19:53:16.361Z,91.30
2018-03-27T19:55:44.685Z,91.30
2018-03-27T19:58:12.985Z,91.40
2018-03-27T20:00:41.303Z,91.40
2018-03-27T20:03:09.592Z,91.50
2018-03-27T20:05:37.909Z,91.50
2018-03-27T20:08:06.200Z,91.60
2018-03-27T20:10:34.512Z,91.60
2018-03-27T20:13:02.807Z,91.80
2018-03-27T20:15:41.702Z,91.80
2018-03-27T20:17:59.433Z,91.80
2018-03-27T20:20:27.743Z,91.80
2018-03-27T20:22:56.041Z,91.90
2018-03-27T20:25:24.361Z,91.80
2018-03-27T20:27:52.660Z,91.90
2018-03-27T20:30:20.996Z,92.00
2018-03-27T20:32:49.288Z,92.00
2018-03-27T20:35:16.836Z,92.50
2018-03-27T20:37:44.388Z,92.10
2018-03-27T20:40:12.689Z,92.20
2018-03-27T20:42:41.034Z,92.20
2018-03-27T20:45:09.338Z,92.20
2018-03-27T20:47:37.669Z,92.60
2018-03-27T20:50:05.968Z,92.30
2018-03-27T20:52:34.284Z,92.30
2018-03-27T20:55:02.577Z,92.40
2018-03-27T20:57:30.888Z,92.50
2018-03-27T20:59:59.175Z,92.50
2018-03-27T21:02:27.503Z,92.50
2018-03-27T21:04:55.800Z,92.70
2018-03-27T21:07:24.112Z,92.80
2018-03-27T21:09:52.412Z,92.90
2018-03-27T21:12:20.736Z,92.90
2018-03-27T21:14:49.031Z,92.90
2018-03-27T21:17:16.575Z,92.90
2018-03-27T21:19:44.870Z,93.00
2018-03-27T21:22:13.184Z,93.10
2018-03-27T21:24:41.524Z,93.10
2018-03-27T21:27:09.847Z,93.20
2018-03-27T21:29:38.148Z,93.20
2018-03-27T21:32:06.467Z,93.30
2018-03-27T21:34:34.768Z,93.30
2018-03-27T21:37:03.092Z,93.30
2018-03-27T21:39:31.401Z,93.40
2018-03-27T21:41:59.729Z,93.40
2018-03-27T21:44:28.037Z,93.50
2018-03-27T21:46:56.364Z,93.50
2018-03-27T21:49:24.653Z,93.50
2018-03-27T21:51:52.984Z,93.50
2018-03-27T21:54:21.294Z,93.50
2018-03-27T21:56:48.853Z,93.60
2018-03-27T21:59:21.980Z,93.60
2018-03-27T22:01:50.299Z,93.70
2018-03-27T22:04:18.593Z,93.80
2018-03-27T22:06:46.144Z,93.80
2018-03-27T22:09:14.440Z,93.90
2018-03-27T22:11:42.771Z,94.10
2018-03-27T22:14:11.064Z,94.20
2018-03-27T22:16:39.392Z,94.30
2018-03-27T22:19:07.688Z,94.30
2018-03-27T22:21:35.984Z,94.60
2018-03-27T22:24:04.300Z,94.40
2018-03-27T22:26:32.600Z,94.20
2018-03-27T22:29:01.217Z,94.20
2018-03-27T22:31:29.519Z,94.20
2018-03-27T22:33:57.837Z,94.10
2018-03-27T22:36:26.128Z,94.10
2018-03-27T22:38:54.449Z,94.00
2018-03-27T22:41:22.749Z,94.00
2018-03-27T22:43:51.067Z,94.00
2018-03-27T22:46:19.365Z,94.00
2018-03-27T22:48:47.684Z,94.00
2018-03-27T22:51:15.972Z,94.00
2018-03-27T22:53:44.279Z,94.00
2018-03-27T22:56:11.847Z,94.00
2018-03-27T22:58:40.169Z,94.20
2018-03-27T23:01:08.472Z,94.20
2018-03-27T23:03:36.794Z,94.20
2018-03-27T23:06:05.091Z,94.20
2018-03-27T23:08:33.420Z,94.20
2018-03-27T23:11:01.717Z,94.30
2018-03-27T23:13:30.038Z,94.30
2018-03-27T23:15:58.337Z,94.20
2018-03-27T23:18:26.660Z,94.10
2018-03-27T23:20:54.971Z,94.10
2018-03-27T23:23:23.286Z,94.00
2018-03-27T23:25:51.580Z,94.10
2018-03-27T23:28:19.884Z,94.10
2018-03-27T23:30:48.181Z,94.10
2018-03-27T23:33:16.496Z,94.20
2018-03-27T23:35:44.792Z,94.30
2018-03-27T23:38:13.120Z,94.30
2018-03-27T23:40:41.420Z,94.40
2018-03-27T23:43:09.746Z,94.50
2018-03-27T23:45:38.048Z,94.60
2018-03-27T23:48:06.376Z,94.80
2018-03-27T23:50:34.667Z,95.00
2018-03-27T23:53:02.995Z,95.10
2018-03-27T23:55:31.293Z,95.30
2018-03-27T23:57:59.602Z,95.50
